createdAt,value
2018-08-03T00:02:03.776Z,96.30
2018-08-03T00:04:32.116Z,96.40
2018-08-03T00:07:00.348Z,96.50
2018-08-03T00:09:28.641Z,96.50
2018-08-03T00:11:56.836Z,96.60
2018-08-03T00:14:25.284Z,96.70
2018-08-03T00:16:53.531Z,96.70
2018-08-03T00:19:21.730Z,96.80
2018-08-03T00:21:49.988Z,96.90
2018-08-03T00:24:18.192Z,96.90
2018-08-03T00:26:46.460Z,97.00
2018-08-03T00:29:14.672Z,97.10
2018-08-03T00:31:42.932Z,97.10
2018-08-03T00:34:11.212Z,97.20
2018-08-03T00:36:39.427Z,97.20
2018-08-03T00:39:09.099Z,97.30
2018-08-03T00:41:37.406Z,97.30
2018-08-03T00:44:05.618Z,97.30
2018-08-03T00:46:33.847Z,97.30
2018-08-03T00:49:02.322Z,97.30
2018-08-03T00:51:30.549Z,97.30
2018-08-03T00:53:59.703Z,97.40
2018-08-03T00:56:27.941Z,97.40
2018-08-03T00:58:56.205Z,97.40
2018-08-03T01:01:24.488Z,97.40
2018-08-03T01:03:52.715Z,97.40
2018-08-03T01:06:21.584Z,97.50
2018-08-03T01:08:49.812Z,97.50
2018-08-03T01:11:18.048Z,97.60
2018-08-03T01:13:46.289Z,97.60
2018-08-03T01:16:14.528Z,97.70
2018-08-03T01:18:42.793Z,97.80
2018-08-03T01:21:11.065Z,97.80
2018-08-03T01:23:39.288Z,97.90
2018-08-03T01:26:07.579Z,98.00
2018-08-03T01:28:35.912Z,98.10
2018-08-03T01:31:04.504Z,98.20
2018-08-03T01:33:32.741Z,98.30
2018-08-03T01:36:01.023Z,98.30
2018-08-03T01:38:29.238Z,98.30
2018-08-03T01:40:57.447Z,98.40
2018-08-03T01:43:25.659Z,98.30
2018-08-03T01:45:53.891Z,98.30
2018-08-03T01:48:22.112Z,98.40
2018-08-03T01:50:50.372Z,98.40
2018-08-03T01:53:18.592Z,98.40
2018-08-03T01:55:46.846Z,98.40
2018-08-03T01:58:15.168Z,98.40
2018-08-03T02:00:43.385Z,98.40
2018-08-03T02:03:11.684Z,98.50
2018-08-03T02:05:39.892Z,98.60
2018-08-03T02:08:08.112Z,98.60
2018-08-03T02:10:36.330Z,98.70
2018-08-03T02:13:04.547Z,98.80
2018-08-03T02:15:32.779Z,98.80
2018-08-03T02:18:01.037Z,98.80
2018-08-03T02:20:29.260Z,98.80
2018-08-03T02:22:57.468Z,98.80
2018-08-03T02:25:25.704Z,98.80
2018-08-03T02:27:53.942Z,98.80
2018-08-03T02:30:22.213Z,98.90
2018-08-03T02:32:50.436Z,98.90
2018-08-03T02:35:18.776Z,98.90
2018-08-03T02:37:47.022Z,98.90
2018-08-03T02:40:15.220Z,98.90
2018-08-03T02:42:43.468Z,99.00
2018-08-03T02:45:11.731Z,99.00
2018-08-03T02:47:39.972Z,99.00
2018-08-03T02:50:08.212Z,99.10
2018-08-03T02:52:36.445Z,99.10
2018-08-03T02:55:04.729Z,99.10
2018-08-03T02:57:32.939Z,99.20
2018-08-03T03:00:01.171Z,99.20
2018-08-03T03:02:29.413Z,99.30
2018-08-03T03:04:57.624Z,99.40
2018-08-03T03:07:25.918Z,99.40
2018-08-03T03:09:54.130Z,99.40
2018-08-03T03:12:22.344Z,99.40
2018-08-03T03:14:50.596Z,99.40
2018-08-03T03:17:18.807Z,99.50
2018-08-03T03:19:47.041Z,99.60
2018-08-03T03:22:15.308Z,99.60
2018-08-03T03:24:43.544Z,99.60
2018-08-03T03:27:11.868Z,99.60
2018-08-03T03:29:40.101Z,99.60
2018-08-03T03:32:08.650Z,99.50
2018-08-03T03:34:36.881Z,99.60
2018-08-03T03:37:05.371Z,99.60
2018-08-03T03:39:33.589Z,99.60
2018-08-03T03:42:01.833Z,99.60
2018-08-03T03:44:30.059Z,99.70
2018-08-03T03:46:58.280Z,99.70
2018-08-03T03:49:26.487Z,99.70
2018-08-03T03:51:54.728Z,99.70
2018-08-03T03:54:22.967Z,99.80
2018-08-03T03:56:52.159Z,99.80
2018-08-03T03:59:20.437Z,99.80
2018-08-03T04:01:48.650Z,99.80
2018-08-03T04:04:16.885Z,99.80
2018-08-03T04:06:45.105Z,99.80
2018-08-03T04:09:13.709Z,99.80
2018-08-03T04:11:42.091Z,99.80
2018-08-03T04:14:10.483Z,99.90
2018-08-03T04:16:38.945Z,99.90
2018-08-03T04:19:07.432Z,99.90
2018-08-03T04:21:35.696Z,99.90
2018-08-03T04:24:03.921Z,99.90
2018-08-03T04:26:32.205Z,99.90
2018-08-03T04:29:00.423Z,99.90
2018-08-03T04:31:28.664Z,99.90
2018-08-03T04:33:56.888Z,99.90
2018-08-03T04:36:25.161Z,99.90
2018-08-03T04:38:53.445Z,99.90
2018-08-03T04:41:21.639Z,99.90
2018-08-03T04:43:49.885Z,99.90
2018-08-03T04:46:18.096Z,99.90
2018-08-03T04:48:46.544Z,99.90
2018-08-03T04:51:14.742Z,99.90
2018-08-03T04:53:43.004Z,99.90
2018-08-03T04:56:11.287Z,99.80
2018-08-03T04:58:39.506Z,99.70
2018-08-03T05:01:07.760Z,99.60
2018-08-03T05:03:36.583Z,99.60
2018-08-03T05:06:04.790Z,99.60
2018-08-03T05:11:00.992Z,99.40
2018-08-03T05:13:29.240Z,99.20
2018-08-03T05:15:57.418Z,99.00
2018-08-03T05:18:25.644Z,98.80
2018-08-03T05:20:53.946Z,98.60
2018-08-03T05:23:22.175Z,98.50
2018-08-03T05:25:50.453Z,98.30
2018-08-03T05:28:18.668Z,98.20
2018-08-03T05:30:46.906Z,98.10
2018-08-03T05:33:15.105Z,98.20
2018-08-03T05:35:43.346Z,98.10
2018-08-03T05:38:11.572Z,98.10
2018-08-03T05:40:40.972Z,98.00
2018-08-03T05:43:09.289Z,98.00
2018-08-03T05:45:37.599Z,97.90
2018-08-03T05:48:05.773Z,97.80
2018-08-03T05:50:34.007Z,97.70
2018-08-03T05:53:02.215Z,97.50
2018-08-03T05:55:30.424Z,97.20
2018-08-03T05:57:58.783Z,97.00
2018-08-03T06:00:27.913Z,97.10
2018-08-03T06:02:56.116Z,96.60
2018-08-03T06:05:24.388Z,96.50
2018-08-03T06:07:52.641Z,96.30
2018-08-03T06:10:20.977Z,96.20
2018-08-03T06:12:49.283Z,96.00
2018-08-03T06:15:17.531Z,96.30
2018-08-03T06:17:45.789Z,96.00
2018-08-03T06:20:14.544Z,95.90
2018-08-03T06:22:43.022Z,95.80
2018-08-03T06:25:11.608Z,95.60
2018-08-03T06:27:39.880Z,95.40
2018-08-03T06:30:10.100Z,95.30
2018-08-03T06:32:38.882Z,95.20
2018-08-03T06:35:07.274Z,95.20
2018-08-03T06:37:35.750Z,95.10
2018-08-03T06:40:04.050Z,95.00
2018-08-03T06:42:32.282Z,94.80
2018-08-03T06:45:00.520Z,94.60
2018-08-03T06:47:28.878Z,94.40
2018-08-03T06:49:57.136Z,94.30
2018-08-03T06:52:25.348Z,94.20
2018-08-03T06:54:53.879Z,94.10
2018-08-03T06:57:22.145Z,94.00
2018-08-03T06:59:50.348Z,94.00
2018-08-03T07:02:18.585Z,93.90
2018-08-03T07:04:46.827Z,93.70
2018-08-03T07:07:15.092Z,93.50
2018-08-03T07:09:43.299Z,93.40
2018-08-03T07:12:11.571Z,93.20
2018-08-03T07:14:39.901Z,93.00
2018-08-03T07:17:08.104Z,92.90
2018-08-03T07:19:36.364Z,92.90
2018-08-03T07:22:04.740Z,92.50
2018-08-03T07:24:32.991Z,92.30
2018-08-03T07:27:01.200Z,92.30
2018-08-03T07:29:29.437Z,92.10
2018-08-03T07:31:57.748Z,91.90
2018-08-03T07:34:25.989Z,91.40
2018-08-03T07:36:54.323Z,90.90
2018-08-03T07:39:22.565Z,90.60
2018-08-03T07:41:50.907Z,90.50
2018-08-03T07:44:19.162Z,90.30
2018-08-03T07:46:47.352Z,90.00
2018-08-03T07:49:15.607Z,89.70
2018-08-03T07:51:43.925Z,89.00
2018-08-03T07:54:12.203Z,88.80
2018-08-03T07:56:40.491Z,88.60
2018-08-03T07:59:08.724Z,88.20
2018-08-03T08:01:37.103Z,87.80
2018-08-03T08:04:05.432Z,87.40
2018-08-03T08:06:33.744Z,86.80
2018-08-03T08:09:02.360Z,85.70
2018-08-03T08:11:30.567Z,85.80
2018-08-03T08:13:58.956Z,84.40
2018-08-03T08:16:27.176Z,83.90
2018-08-03T08:18:55.437Z,83.70
2018-08-03T08:21:23.627Z,83.10
2018-08-03T08:23:51.921Z,83.20
2018-08-03T08:26:20.202Z,81.30
2018-08-03T08:28:48.540Z,80.60
2018-08-03T08:31:16.788Z,80.00
2018-08-03T08:33:45.077Z,79.50
2018-08-03T08:36:13.291Z,79.20
2018-08-03T08:38:41.531Z,78.90
2018-08-03T08:41:09.792Z,78.70
2018-08-03T08:43:38.108Z,78.70
2018-08-03T08:46:06.553Z,78.10
2018-08-03T08:48:34.760Z,77.00
2018-08-03T08:51:02.983Z,76.50
2018-08-03T08:53:31.230Z,76.20
2018-08-03T08:55:59.531Z,75.90
2018-08-03T08:58:27.754Z,75.70
2018-08-03T09:00:56.075Z,75.30
2018-08-03T09:03:24.240Z,74.90
2018-08-03T09:05:52.502Z,73.80
2018-08-03T09:08:20.796Z,72.50
2018-08-03T09:10:49.041Z,72.10
2018-08-03T09:13:17.281Z,70.70
2018-08-03T09:15:45.575Z,70.00
2018-08-03T09:18:13.796Z,70.20
2018-08-03T09:20:42.113Z,68.30
2018-08-03T09:23:10.332Z,68.00
2018-08-03T09:25:38.544Z,68.00
2018-08-03T09:28:07.068Z,67.70
2018-08-03T09:30:35.345Z,67.60
2018-08-03T09:33:03.607Z,67.40
2018-08-03T09:35:31.938Z,67.50
2018-08-03T09:38:00.177Z,67.70
2018-08-03T09:40:28.411Z,67.40
2018-08-03T09:42:56.668Z,66.40
2018-08-03T09:45:24.879Z,65.70
2018-08-03T09:47:53.116Z,64.30
2018-08-03T09:50:21.367Z,63.80
2018-08-03T09:52:49.645Z,63.80
2018-08-03T09:55:17.970Z,64.00
2018-08-03T09:57:46.205Z,63.90
2018-08-03T10:00:16.345Z,63.80
2018-08-03T10:05:13.956Z,63.70
2018-08-03T10:07:42.179Z,63.20
2018-08-03T10:10:10.404Z,63.00
2018-08-03T10:12:38.660Z,62.60
2018-08-03T10:15:06.860Z,62.50
2018-08-03T10:17:35.134Z,62.20
2018-08-03T10:20:03.407Z,61.60
2018-08-03T10:22:32.515Z,61.30
2018-08-03T10:25:00.780Z,61.40
2018-08-03T10:27:29.033Z,60.70
2018-08-03T10:29:57.430Z,60.30
2018-08-03T10:32:25.780Z,59.90
2018-08-03T10:34:54.047Z,59.60
2018-08-03T10:37:22.289Z,60.00
2018-08-03T10:39:50.512Z,60.60
2018-08-03T10:42:18.776Z,60.00
2018-08-03T10:47:15.100Z,58.30
2018-08-03T10:49:43.287Z,58.90
2018-08-03T10:52:11.519Z,59.10
2018-08-03T10:54:39.769Z,58.60
2018-08-03T10:57:08.135Z,58.50
2018-08-03T10:59:36.312Z,58.20
2018-08-03T11:02:04.600Z,58.10
2018-08-03T11:04:32.788Z,57.40
2018-08-03T11:07:01.085Z,57.30
2018-08-03T11:09:29.307Z,56.80
2018-08-03T11:11:57.581Z,56.50
2018-08-03T11:14:25.772Z,56.20
2018-08-03T11:16:53.999Z,56.10
2018-08-03T11:19:22.292Z,55.20
2018-08-03T11:21:50.504Z,55.10
2018-08-03T11:24:18.824Z,54.70
2018-08-03T11:26:46.994Z,54.80
2018-08-03T11:29:15.220Z,53.90
2018-08-03T11:31:43.465Z,53.70
2018-08-03T11:34:11.720Z,53.60
2018-08-03T11:36:39.944Z,53.10
2018-08-03T11:39:10.412Z,53.10
2018-08-03T11:41:38.625Z,53.00
2018-08-03T11:44:07.025Z,53.00
2018-08-03T11:46:35.253Z,52.80
2018-08-03T11:49:03.465Z,51.90
2018-08-03T11:51:31.701Z,51.30
2018-08-03T11:53:59.976Z,51.50
2018-08-03T11:56:28.177Z,50.10
2018-08-03T11:58:56.396Z,50.40
2018-08-03T12:01:24.605Z,48.80
2018-08-03T12:03:53.001Z,48.20
2018-08-03T12:06:21.317Z,48.60
2018-08-03T12:08:49.520Z,47.80
2018-08-03T12:11:17.806Z,47.00
2018-08-03T12:13:46.029Z,46.50
2018-08-03T12:16:14.272Z,46.50
2018-08-03T12:18:42.500Z,46.90
2018-08-03T12:21:10.689Z,45.70
2018-08-03T12:23:38.916Z,44.90
2018-08-03T12:26:07.157Z,44.40
2018-08-03T12:28:35.368Z,44.10
2018-08-03T12:31:03.583Z,44.40
2018-08-03T12:33:31.781Z,45.30
2018-08-03T12:36:00.031Z,45.50
2018-08-03T12:38:28.234Z,45.80
2018-08-03T12:40:56.463Z,44.90
2018-08-03T12:43:24.739Z,44.90
2018-08-03T12:45:53.035Z,44.70
2018-08-03T12:48:22.208Z,44.50
2018-08-03T12:50:50.445Z,44.60
2018-08-03T12:53:18.675Z,45.80
2018-08-03T12:55:46.884Z,45.50
2018-08-03T12:58:15.176Z,44.10
2018-08-03T13:00:43.444Z,43.50
2018-08-03T13:03:11.872Z,43.00
2018-08-03T13:05:40.092Z,43.10
2018-08-03T13:08:08.520Z,42.90
2018-08-03T13:10:36.652Z,43.10
2018-08-03T13:13:04.913Z,43.30
2018-08-03T13:15:33.429Z,43.20
2018-08-03T13:18:01.669Z,43.20
2018-08-03T13:20:29.900Z,42.60
2018-08-03T13:23:00.967Z,41.60
2018-08-03T13:28:02.955Z,41.70
2018-08-03T13:30:31.997Z,42.00
2018-08-03T13:33:00.981Z,41.70
2018-08-03T13:35:29.235Z,41.50
2018-08-03T13:37:57.440Z,41.30
2018-08-03T13:40:25.739Z,41.40
2018-08-03T13:42:53.971Z,42.00
2018-08-03T13:45:22.197Z,41.50
2018-08-03T13:47:50.436Z,41.50
2018-08-03T13:50:18.675Z,41.10
2018-08-03T13:52:46.876Z,40.70
2018-08-03T13:55:15.080Z,40.40
2018-08-03T13:57:43.319Z,40.30
2018-08-03T14:00:12.800Z,40.80
2018-08-03T14:02:41.160Z,41.50
2018-08-03T14:05:10.614Z,42.50
2018-08-03T14:07:38.949Z,42.70
2018-08-03T14:10:08.270Z,42.60
2018-08-03T14:12:36.524Z,41.70
2018-08-03T14:15:05.586Z,41.60
2018-08-03T14:17:33.853Z,40.20
2018-08-03T14:20:02.075Z,39.80
2018-08-03T14:22:30.324Z,39.60
2018-08-03T14:24:58.588Z,39.30
2018-08-03T14:27:27.547Z,39.20
2018-08-03T14:29:56.776Z,38.90
2018-08-03T14:32:25.028Z,38.70
2018-08-03T14:34:53.324Z,38.50
2018-08-03T14:37:22.699Z,38.70
2018-08-03T14:39:51.018Z,38.80
2018-08-03T14:42:19.228Z,39.60
2018-08-03T14:44:47.464Z,39.90
2018-08-03T14:47:15.702Z,40.80
2018-08-03T14:49:43.953Z,40.60
2018-08-03T14:52:12.189Z,40.70
2018-08-03T14:54:40.438Z,40.60
2018-08-03T14:57:08.806Z,40.10
2018-08-03T14:59:37.064Z,38.80
2018-08-03T15:02:05.556Z,38.10
2018-08-03T15:04:33.817Z,37.50
2018-08-03T15:07:02.062Z,37.80
2018-08-03T15:09:30.279Z,37.40
2018-08-03T15:11:58.492Z,36.60
2018-08-03T15:14:26.727Z,35.90
2018-08-03T15:16:54.947Z,34.10
2018-08-03T15:19:23.257Z,33.50
2018-08-03T15:21:51.531Z,33.10
2018-08-03T15:24:19.814Z,33.20
2018-08-03T15:26:48.057Z,33.20
2018-08-03T15:29:17.759Z,33.50
2018-08-03T15:31:45.956Z,33.10
2018-08-03T15:34:14.192Z,32.80
2018-08-03T15:36:42.473Z,33.10
2018-08-03T15:39:11.647Z,33.60
2018-08-03T15:41:39.911Z,34.00
2018-08-03T15:44:08.148Z,33.40
2018-08-03T15:46:36.411Z,33.00
2018-08-03T15:49:04.643Z,33.10
2018-08-03T15:51:32.952Z,33.20
2018-08-03T15:54:01.740Z,32.90
2018-08-03T15:56:29.974Z,32.80
2018-08-03T15:58:58.501Z,33.50
2018-08-03T16:01:27.283Z,33.80
2018-08-03T16:03:55.683Z,34.10
2018-08-03T16:06:24.050Z,33.90
2018-08-03T16:08:56.133Z,33.60
2018-08-03T16:11:24.355Z,33.60
2018-08-03T16:13:52.553Z,33.50
2018-08-03T16:16:20.953Z,33.40
2018-08-03T16:18:49.192Z,33.40
2018-08-03T16:21:17.498Z,33.20
2018-08-03T16:23:45.954Z,32.90
2018-08-03T16:26:14.248Z,33.00
2018-08-03T16:28:42.481Z,32.90
2018-08-03T16:31:10.697Z,32.80
2018-08-03T16:33:39.020Z,32.70
2018-08-03T16:36:07.289Z,32.90
2018-08-03T16:38:35.571Z,33.30
2018-08-03T16:41:03.904Z,33.60
2018-08-03T16:43:32.260Z,33.90
2018-08-03T16:46:02.500Z,34.20
2018-08-03T16:48:30.730Z,34.70
2018-08-03T16:50:59.041Z,35.00
2018-08-03T16:53:27.252Z,35.40
2018-08-03T16:55:55.609Z,36.00
2018-08-03T16:58:23.808Z,35.90
2018-08-03T17:00:52.048Z,35.60
2018-08-03T17:03:20.847Z,35.60
2018-08-03T17:05:49.065Z,35.40
2018-08-03T17:08:17.362Z,35.60
2018-08-03T17:10:45.575Z,35.50
2018-08-03T17:13:13.858Z,35.10
2018-08-03T17:15:42.032Z,34.50
2018-08-03T17:18:10.308Z,34.40
2018-08-03T17:20:38.541Z,34.50
2018-08-03T17:23:06.756Z,34.60
2018-08-03T17:25:35.010Z,35.00
2018-08-03T17:28:03.293Z,35.10
2018-08-03T17:30:31.484Z,35.40
2018-08-03T17:32:59.704Z,35.50
2018-08-03T17:35:27.988Z,35.70
2018-08-03T17:37:56.239Z,35.90
2018-08-03T17:40:24.485Z,36.00
2018-08-03T17:42:52.896Z,36.20
2018-08-03T17:45:21.058Z,36.30
2018-08-03T17:47:49.276Z,36.30
2018-08-03T17:50:17.506Z,36.10
2018-08-03T17:52:45.756Z,36.10
2018-08-03T17:55:13.992Z,36.60
2018-08-03T17:57:42.217Z,36.60
2018-08-03T18:00:10.685Z,36.10
2018-08-03T18:02:38.894Z,36.30
2018-08-03T18:05:07.200Z,35.70
2018-08-03T18:07:35.434Z,35.10
2018-08-03T18:10:03.675Z,34.70
2018-08-03T18:12:31.909Z,34.50
2018-08-03T18:15:00.339Z,34.30
2018-08-03T18:17:28.557Z,34.30
2018-08-03T18:19:56.800Z,34.40
2018-08-03T18:22:25.063Z,34.60
2018-08-03T18:24:53.896Z,35.20
2018-08-03T18:27:22.151Z,36.10
2018-08-03T18:29:50.360Z,37.50
2018-08-03T18:32:18.627Z,39.40
2018-08-03T18:34:46.985Z,41.20
2018-08-03T18:37:15.188Z,42.80
2018-08-03T18:39:43.434Z,44.30
2018-08-03T18:42:11.686Z,46.20
2018-08-03T18:44:39.955Z,47.30
2018-08-03T18:47:08.165Z,48.10
2018-08-03T18:49:36.430Z,49.10
2018-08-03T18:52:04.735Z,49.50
2018-08-03T18:54:32.909Z,49.90
2018-08-03T18:57:01.116Z,50.20
2018-08-03T18:59:29.352Z,50.90
2018-08-03T19:01:57.601Z,51.70
2018-08-03T19:04:25.825Z,53.00
2018-08-03T19:06:54.069Z,53.90
2018-08-03T19:09:22.312Z,54.80
2018-08-03T19:11:50.971Z,54.30
2018-08-03T19:14:19.244Z,54.90
2018-08-03T19:16:47.487Z,54.70
2018-08-03T19:19:15.947Z,54.40
2018-08-03T19:21:44.233Z,55.50
2018-08-03T19:24:12.466Z,56.10
2018-08-03T19:26:40.762Z,56.70
2018-08-03T19:29:09.754Z,58.20
2018-08-03T19:31:38.428Z,59.10
2018-08-03T19:34:06.853Z,59.30
2018-08-03T19:36:35.432Z,59.40
2018-08-03T19:39:06.102Z,60.20
2018-08-03T19:41:34.769Z,60.70
2018-08-03T19:44:03.952Z,61.50
2018-08-03T19:46:32.655Z,62.80
2018-08-03T19:49:01.318Z,63.80
2018-08-03T19:51:31.200Z,65.00
2018-08-03T19:54:03.214Z,65.90
2018-08-03T19:56:31.804Z,66.70
2018-08-03T19:59:00.348Z,67.50
2018-08-03T20:01:28.647Z,68.30
2018-08-03T20:03:57.278Z,68.50
2018-08-03T20:06:25.963Z,69.20
2018-08-03T20:08:54.425Z,70.20
2018-08-03T20:11:22.870Z,70.60
2018-08-03T20:13:51.293Z,72.20
2018-08-03T20:16:19.658Z,73.40
2018-08-03T20:18:48.101Z,74.20
2018-08-03T20:21:16.440Z,74.90
2018-08-03T20:23:44.841Z,75.40
2018-08-03T20:26:13.240Z,76.10
2018-08-03T20:28:42.070Z,76.30
2018-08-03T20:31:10.463Z,76.50
2018-08-03T20:33:39.099Z,77.10
2018-08-03T20:36:07.665Z,77.60
2018-08-03T20:38:36.241Z,78.30
2018-08-03T20:41:04.466Z,79.10
2018-08-03T20:43:33.084Z,79.70
2018-08-03T20:46:01.320Z,80.00
2018-08-03T20:48:29.524Z,80.30
2018-08-03T20:50:57.795Z,80.90
2018-08-03T20:53:26.104Z,81.30
2018-08-03T20:55:54.368Z,81.70
2018-08-03T20:58:23.719Z,82.10
2018-08-03T21:00:52.028Z,82.60
2018-08-03T21:05:48.576Z,83.50
2018-08-03T21:08:17.033Z,83.70
2018-08-03T21:10:45.346Z,84.00
2018-08-03T21:13:13.747Z,84.20
2018-08-03T21:15:42.347Z,84.50
2018-08-03T21:18:10.756Z,84.90
2018-08-03T21:20:39.103Z,85.10
2018-08-03T21:23:08.261Z,85.30
2018-08-03T21:25:36.903Z,85.10
2018-08-03T21:28:05.361Z,85.20
2018-08-03T21:30:33.882Z,85.30
2018-08-03T21:33:02.363Z,84.90
2018-08-03T21:35:31.078Z,84.90
2018-08-03T21:37:59.505Z,84.80
2018-08-03T21:40:28.040Z,85.30
2018-08-03T21:42:56.791Z,85.80
2018-08-03T21:45:25.194Z,85.80
2018-08-03T21:47:53.989Z,86.10
2018-08-03T21:50:22.694Z,86.80
2018-08-03T21:52:51.169Z,87.20
2018-08-03T21:55:19.955Z,87.60
2018-08-03T21:57:48.489Z,87.90
2018-08-03T22:00:20.197Z,88.40
2018-08-03T22:05:16.996Z,89.00
2018-08-03T22:07:46.184Z,89.00
2018-08-03T22:10:15.750Z,89.30
2018-08-03T22:12:44.337Z,89.60
2018-08-03T22:15:12.690Z,90.00
2018-08-03T22:17:41.164Z,90.10
2018-08-03T22:20:09.709Z,90.30
2018-08-03T22:22:38.393Z,90.30
2018-08-03T22:25:06.985Z,90.30
2018-08-03T22:27:35.575Z,90.40
2018-08-03T22:30:04.686Z,90.30
2018-08-03T22:32:33.345Z,90.30
2018-08-03T22:35:02.003Z,90.20
2018-08-03T22:37:30.682Z,90.20
2018-08-03T22:39:59.235Z,90.30
2018-08-03T22:42:27.735Z,90.40
2018-08-03T22:44:56.391Z,90.50
2018-08-03T22:49:53.480Z,90.50
2018-08-03T22:52:22.073Z,90.40
2018-08-03T22:54:50.719Z,90.50
2018-08-03T22:57:19.511Z,90.70
2018-08-03T22:59:47.923Z,90.90
2018-08-03T23:02:16.676Z,91.10
2018-08-03T23:04:45.272Z,91.20
2018-08-03T23:07:13.881Z,91.30
2018-08-03T23:09:42.316Z,91.40
2018-08-03T23:12:10.935Z,91.50
2018-08-03T23:14:39.668Z,91.50
2018-08-03T23:17:08.246Z,91.70
2018-08-03T23:19:36.700Z,91.80
2018-08-03T23:22:05.293Z,91.80
2018-08-03T23:24:33.888Z,91.70
2018-08-03T23:27:02.720Z,91.70
2018-08-03T23:29:31.218Z,91.80
2018-08-03T23:32:00.107Z,92.00
2018-08-03T23:34:28.738Z,92.10
2018-08-03T23:36:57.392Z,92.00
2018-08-03T23:39:25.976Z,92.00
2018-08-03T23:41:54.399Z,92.10
2018-08-03T23:44:22.956Z,92.20
2018-08-03T23:49:20.590Z,92.20
2018-08-03T23:51:49.109Z,92.40
2018-08-03T23:54:17.708Z,92.90
2018-08-03T23:56:46.394Z,92.70
2018-08-03T23:59:14.999Z,92.60
